createdAt,value
2023-05-05T00:24:16.720Z,77.5
2023-05-05T00:39:40.005Z,79
2023-05-05T00:55:03.305Z,82.8
2023-05-05T01:10:26.620Z,83.5
2023-05-05T01:25:49.914Z,84.6
2023-05-05T01:41:13.208Z,84.3
2023-05-05T01:56:36.516Z,83.8
2023-05-05T02:11:59.809Z,84
2023-05-05T02:27:23.113Z,85
2023-05-05T02:42:46.424Z,87.4
2023-05-05T02:58:08.741Z,87
2023-05-05T03:13:31.983Z,88.3
2023-05-05T03:28:55.260Z,87.9
2023-05-05T03:44:18.505Z,87.3
2023-05-05T03:59:41.778Z,87.2
2023-05-05T04:15:05.027Z,88.9
2023-05-05T04:30:28.283Z,90.3
2023-05-05T04:45:51.550Z,85.1
2023-05-05T05:01:14.820Z,80.7
2023-05-05T05:16:38.082Z,74.6
2023-05-05T05:32:01.324Z,73.2
2023-05-05T05:47:24.585Z,69.8
2023-05-05T06:02:47.847Z,65.2
2023-05-05T06:18:10.123Z,64.2
2023-05-05T06:33:33.377Z,62.1
2023-05-05T06:48:56.635Z,61.7
2023-05-05T07:04:19.881Z,59.4
2023-05-05T07:19:43.140Z,57.3
2023-05-05T07:21:06.560Z,57.3
2023-05-05T07:22:29.964Z,57
2023-05-05T07:23:53.375Z,57.7
2023-05-05T07:25:16.780Z,57.8
2023-05-05T07:26:40.185Z,58.5
2023-05-05T07:28:03.601Z,57.5
2023-05-05T07:29:27.003Z,56.8
2023-05-05T07:30:50.412Z,57.5
2023-05-05T07:32:12.842Z,57.2
2023-05-05T07:33:36.241Z,56.5
2023-05-05T07:34:59.661Z,57.1
2023-05-05T07:36:23.059Z,56.9
2023-05-05T07:37:46.463Z,55
2023-05-05T07:39:09.865Z,54.5
2023-05-05T07:40:33.280Z,56.2
2023-05-05T07:41:56.692Z,55.7
2023-05-05T07:43:20.103Z,55.1
2023-05-05T07:44:43.505Z,54.4
2023-05-05T07:46:06.925Z,54
2023-05-05T07:47:30.323Z,54.4
2023-05-05T07:48:53.738Z,54.5
2023-05-05T07:50:16.184Z,54.5
2023-05-05T07:51:39.573Z,53.4
2023-05-05T07:53:02.977Z,53.7
2023-05-05T07:54:26.389Z,53.8
2023-05-05T07:55:49.807Z,53
2023-05-05T07:57:13.204Z,50.7
2023-05-05T07:58:36.617Z,51.1
2023-05-05T08:00:00.039Z,50.5
2023-05-05T08:01:23.439Z,51.7
2023-05-05T08:02:46.844Z,51.5
2023-05-05T08:04:10.253Z,50.5
2023-05-05T08:05:33.662Z,50.6
2023-05-05T08:06:57.078Z,49.8
2023-05-05T08:08:19.503Z,50.3
2023-05-05T08:09:42.897Z,51.1
2023-05-05T08:11:06.311Z,50.3
2023-05-05T08:12:29.730Z,50
2023-05-05T08:13:53.139Z,50.8
2023-05-05T08:15:16.541Z,49.9
2023-05-05T08:16:39.953Z,49.6
2023-05-05T08:18:03.350Z,50.3
2023-05-05T08:19:26.751Z,49
2023-05-05T08:20:50.172Z,49.3
2023-05-05T08:22:13.571Z,48.5
2023-05-05T08:23:36.980Z,48.8
2023-05-05T08:25:00.401Z,48.4
2023-05-05T08:26:22.820Z,47.6
2023-05-05T08:27:46.223Z,47.8
2023-05-05T08:29:09.631Z,46.2
2023-05-05T08:30:33.047Z,46.3
2023-05-05T08:31:56.449Z,45.5
2023-05-05T08:33:19.848Z,45.8
2023-05-05T08:34:43.257Z,44.4
2023-05-05T08:36:06.667Z,43.1
2023-05-05T08:37:30.082Z,42.2
2023-05-05T08:38:53.486Z,43.8
2023-05-05T08:40:16.905Z,45.5
2023-05-05T08:41:40.317Z,43.8
2023-05-05T08:43:03.706Z,42.5
2023-05-05T08:44:26.130Z,42
2023-05-05T08:45:49.540Z,41.8
2023-05-05T08:47:12.948Z,42.6
2023-05-05T08:48:36.379Z,42.1
2023-05-05T08:49:59.790Z,39.5
2023-05-05T08:51:23.191Z,39.6
2023-05-05T08:52:46.601Z,39.3
2023-05-05T08:54:10.002Z,39.6
2023-05-05T08:55:33.423Z,40
2023-05-05T08:56:56.832Z,38.8
2023-05-05T08:58:20.242Z,39.2
2023-05-05T08:59:43.639Z,39.3
2023-05-05T09:01:07.046Z,40.2
2023-05-05T09:02:29.490Z,40.2
2023-05-05T09:03:52.898Z,40.5
2023-05-05T09:05:16.293Z,39.6
2023-05-05T09:06:39.712Z,39.3
2023-05-05T09:08:03.116Z,39.2
2023-05-05T09:09:26.522Z,38.5
2023-05-05T09:10:49.916Z,38.4
2023-05-05T09:12:13.329Z,38.9
2023-05-05T09:13:36.734Z,39
2023-05-05T09:15:00.150Z,38.7
2023-05-05T09:16:23.545Z,37.1
2023-05-05T09:17:46.962Z,37.9
2023-05-05T09:19:10.380Z,37.2
2023-05-05T09:20:32.796Z,36.4
2023-05-05T09:21:56.205Z,36.1
2023-05-05T09:23:19.610Z,36.5
2023-05-05T09:24:43.016Z,37
2023-05-05T09:26:06.422Z,36.9
2023-05-05T09:27:29.823Z,36.7
2023-05-05T09:28:53.230Z,36.6
2023-05-05T09:30:16.652Z,36.8
2023-05-05T09:31:40.055Z,37
2023-05-05T09:33:03.455Z,37.4
2023-05-05T09:34:26.884Z,37.2
2023-05-05T09:35:50.291Z,37.9
2023-05-05T09:37:13.705Z,39
2023-05-05T09:38:36.120Z,39.4
2023-05-05T09:39:59.528Z,38.5
2023-05-05T09:41:22.931Z,38.7
2023-05-05T09:42:46.348Z,38.7
2023-05-05T09:44:09.752Z,38.1
2023-05-05T09:45:33.168Z,37.8
2023-05-05T09:46:56.567Z,37.7
2023-05-05T09:48:19.966Z,37.4
2023-05-05T09:49:43.394Z,37.8
2023-05-05T09:51:06.795Z,38.5
2023-05-05T09:52:30.194Z,38.2
2023-05-05T09:53:53.612Z,39
2023-05-05T09:55:17.026Z,38.8
2023-05-05T09:56:39.449Z,38.6
2023-05-05T09:58:02.840Z,39.4
2023-05-05T09:59:26.259Z,40.1
2023-05-05T10:00:49.655Z,39.7
2023-05-05T10:02:13.063Z,40
2023-05-05T10:03:36.477Z,39.2
2023-05-05T10:04:58.903Z,40.3
2023-05-05T10:06:22.326Z,39.5
2023-05-05T10:07:45.000Z,38.4
2023-05-05T10:09:09.129Z,39.5
2023-05-05T10:10:32.533Z,39.5
2023-05-05T10:11:55.940Z,39.2
2023-05-05T10:13:19.363Z,40.4
2023-05-05T10:14:42.772Z,39.7
2023-05-05T10:16:06.170Z,40
2023-05-05T10:17:29.583Z,39.8
2023-05-05T10:18:52.997Z,38
2023-05-05T10:20:16.407Z,39.1
2023-05-05T10:21:39.796Z,38.5
2023-05-05T10:23:02.237Z,40
2023-05-05T10:24:25.634Z,41.1
2023-05-05T10:25:49.054Z,39.9
2023-05-05T10:27:12.460Z,41.1
2023-05-05T10:28:35.875Z,41
2023-05-05T10:29:59.271Z,41.6
2023-05-05T10:31:22.679Z,41
2023-05-05T10:32:46.080Z,40.8
2023-05-05T10:34:09.502Z,39.9
2023-05-05T10:35:32.905Z,40.1
2023-05-05T10:36:56.318Z,40.7
2023-05-05T10:38:19.736Z,39.9
2023-05-05T10:39:43.138Z,40.5
2023-05-05T10:41:05.565Z,40
2023-05-05T10:42:28.979Z,40.4
2023-05-05T10:43:52.373Z,40.5
2023-05-05T10:45:15.780Z,40.5
2023-05-05T10:46:39.185Z,40.5
2023-05-05T10:48:02.610Z,40.3
2023-05-05T10:49:26.005Z,40.6
2023-05-05T10:50:49.428Z,39.4
2023-05-05T10:52:12.820Z,39.1
2023-05-05T10:53:36.248Z,39.6
2023-05-05T10:54:59.642Z,39.9
2023-05-05T10:56:23.068Z,39.7
2023-05-05T10:57:46.477Z,39.7
2023-05-05T10:59:08.909Z,39.7
2023-05-05T11:00:32.303Z,39.1
2023-05-05T11:01:55.707Z,38.4
2023-05-05T11:03:19.127Z,39
2023-05-05T11:04:42.541Z,38.7
2023-05-05T11:06:05.937Z,38.9
2023-05-05T11:07:29.356Z,39.4
2023-05-05T11:08:52.757Z,39.9
2023-05-05T11:10:16.165Z,39.7
2023-05-05T11:11:39.579Z,38.9
2023-05-05T11:14:26.399Z,40.7
2023-05-05T11:15:49.810Z,40.4
2023-05-05T11:17:12.225Z,40
2023-05-05T11:18:35.625Z,37.8
2023-05-05T11:19:59.033Z,39
2023-05-05T11:21:22.444Z,38.5
2023-05-05T11:22:45.869Z,38.9
2023-05-05T11:24:09.268Z,38.6
2023-05-05T11:25:32.675Z,38.1
2023-05-05T11:26:56.093Z,38
2023-05-05T11:28:19.501Z,38
2023-05-05T11:29:42.896Z,36.7
2023-05-05T11:31:06.304Z,40.5
2023-05-05T11:32:29.726Z,40.4
2023-05-05T11:33:53.138Z,42.5
2023-05-05T11:35:15.551Z,41.6
2023-05-05T11:36:38.968Z,41.2
2023-05-05T11:38:02.368Z,40.9
2023-05-05T11:39:25.766Z,40.9
2023-05-05T11:40:49.178Z,40.3
2023-05-05T11:42:12.602Z,39.5
2023-05-05T11:43:35.992Z,40
2023-05-05T11:44:59.410Z,39.8
2023-05-05T11:46:22.813Z,40.3
2023-05-05T11:47:46.218Z,40.1
2023-05-05T11:49:09.628Z,39.6
2023-05-05T11:50:33.044Z,39
2023-05-05T11:51:56.455Z,38.5
2023-05-05T11:53:18.875Z,38.1
2023-05-05T11:54:42.293Z,38.3
2023-05-05T11:56:05.708Z,38.8
2023-05-05T11:57:29.112Z,39
2023-05-05T11:58:52.526Z,37.3
2023-05-05T12:00:15.938Z,37.7
2023-05-05T12:01:39.354Z,36.2
2023-05-05T12:03:02.761Z,37.5
2023-05-05T12:04:26.163Z,37
2023-05-05T12:05:49.571Z,37.5
2023-05-05T12:07:12.981Z,38.4
2023-05-05T12:08:36.393Z,38.5
2023-05-05T12:09:59.806Z,38.2
2023-05-05T12:11:22.243Z,39.3
2023-05-05T12:12:45.646Z,39.8
2023-05-05T12:14:09.055Z,40.8
2023-05-05T12:15:32.458Z,40.5
2023-05-05T12:16:55.872Z,39.5
2023-05-05T12:18:19.277Z,39.9
2023-05-05T12:19:42.679Z,40.2
2023-05-05T12:21:06.101Z,40.7
2023-05-05T12:22:29.501Z,40.5
2023-05-05T12:23:52.918Z,40.7
2023-05-05T12:25:16.321Z,39.3
2023-05-05T12:26:39.747Z,39.6
2023-05-05T12:28:03.154Z,39.7
2023-05-05T12:29:25.568Z,39.6
2023-05-05T12:30:48.971Z,39.5
2023-05-05T12:32:12.387Z,39.1
2023-05-05T12:33:35.798Z,39.1
2023-05-05T12:34:59.213Z,38.6
2023-05-05T12:36:22.620Z,39.1
2023-05-05T12:37:46.028Z,38.9
2023-05-05T12:39:09.431Z,39.1
2023-05-05T12:40:32.834Z,39
2023-05-05T12:41:56.244Z,38.6
2023-05-05T12:43:19.653Z,38.9
2023-05-05T12:44:43.057Z,38.5
2023-05-05T12:46:06.472Z,38.2
2023-05-05T12:47:28.895Z,38.3
2023-05-05T12:48:52.301Z,37
2023-05-05T12:50:15.707Z,37.7
2023-05-05T12:51:39.126Z,37.9
2023-05-05T12:53:02.543Z,38.5
2023-05-05T12:54:25.932Z,38.7
2023-05-05T12:55:49.344Z,38
2023-05-05T12:57:12.764Z,37.6
2023-05-05T12:58:36.168Z,38
2023-05-05T12:59:59.568Z,37.7
2023-05-05T13:01:22.980Z,37.5
2023-05-05T13:02:46.393Z,36.6
2023-05-05T13:04:09.816Z,37
2023-05-05T13:05:32.242Z,36.9
2023-05-05T13:06:55.639Z,35.9
2023-05-05T13:08:19.056Z,36.2
2023-05-05T13:09:42.462Z,36.4
2023-05-05T13:11:05.867Z,35.7
2023-05-05T13:12:29.266Z,35.9
2023-05-05T13:13:52.695Z,36.2
2023-05-05T13:15:16.098Z,34.9
2023-05-05T13:16:39.505Z,35.8
2023-05-05T13:18:02.912Z,35.2
2023-05-05T13:19:26.322Z,36.3
2023-05-05T13:20:49.724Z,35.2
2023-05-05T13:22:13.137Z,35
2023-05-05T13:23:35.551Z,35.3
2023-05-05T13:24:58.961Z,34.6
2023-05-05T13:26:22.383Z,34.8
2023-05-05T13:27:45.791Z,35.7
2023-05-05T13:29:09.204Z,36.1
2023-05-05T13:30:32.611Z,34.5
2023-05-05T13:31:56.026Z,34.7
2023-05-05T13:33:19.426Z,34.5
2023-05-05T13:34:42.842Z,35.2
2023-05-05T13:36:06.241Z,35.9
2023-05-05T13:37:29.665Z,36.9
2023-05-05T13:38:53.070Z,36.7
2023-05-05T13:40:16.469Z,36.9
2023-05-05T13:41:38.904Z,36.1
2023-05-05T13:43:02.314Z,36.1
2023-05-05T13:44:25.709Z,36.6
2023-05-05T13:45:49.117Z,36.9
2023-05-05T13:47:12.547Z,37.5
2023-05-05T13:48:35.943Z,38.1
2023-05-05T13:49:59.361Z,38.5
2023-05-05T13:51:22.773Z,38
2023-05-05T13:52:46.183Z,38.7
2023-05-05T13:54:09.580Z,38.7
2023-05-05T13:55:33.003Z,39.1
2023-05-05T13:56:56.406Z,39.2
2023-05-05T13:58:19.822Z,39.3
2023-05-05T13:59:42.254Z,39.1
2023-05-05T14:01:05.651Z,38.8
2023-05-05T14:02:29.056Z,39.2
2023-05-05T14:03:52.463Z,39.1
2023-05-05T14:05:15.880Z,39.1
2023-05-05T14:06:39.280Z,39.1
2023-05-05T14:08:02.705Z,38.7
2023-05-05T14:09:26.109Z,39.7
2023-05-05T14:10:49.530Z,39.2
2023-05-05T14:12:12.935Z,39
2023-05-05T14:13:36.326Z,38.6
2023-05-05T14:14:59.730Z,38.5
2023-05-05T14:16:23.151Z,38.7
2023-05-05T14:17:45.583Z,38.8
2023-05-05T14:19:08.983Z,38.9
2023-05-05T14:20:32.389Z,39.4
2023-05-05T14:21:55.809Z,38.9
2023-05-05T14:23:19.219Z,39.5
2023-05-05T14:24:42.629Z,38.8
2023-05-05T14:26:06.027Z,38.3
2023-05-05T14:27:29.430Z,38.5
2023-05-05T14:28:52.850Z,38.6
2023-05-05T14:30:16.260Z,38.9
2023-05-05T14:31:39.661Z,40
2023-05-05T14:33:03.066Z,39.9
2023-05-05T14:34:26.480Z,39
2023-05-05T14:35:48.905Z,39.8
2023-05-05T14:37:12.321Z,38.9
2023-05-05T14:38:35.720Z,38.8
2023-05-05T14:39:59.140Z,39.4
2023-05-05T14:41:22.542Z,39
2023-05-05T14:42:45.942Z,39.2
2023-05-05T14:44:08.389Z,39.4
2023-05-05T14:45:31.791Z,39.6
2023-05-05T14:46:55.205Z,39.8
2023-05-05T14:48:18.610Z,39.9
2023-05-05T14:49:42.008Z,40
2023-05-05T14:51:05.425Z,40.2
2023-05-05T14:52:28.840Z,40
2023-05-05T14:53:52.234Z,40
2023-05-05T14:55:15.654Z,40.1
2023-05-05T14:56:39.055Z,40.4
2023-05-05T14:58:02.468Z,40
2023-05-05T14:59:25.864Z,40.3
2023-05-05T15:00:49.272Z,40.1
2023-05-05T15:02:11.699Z,40.7
2023-05-05T15:03:35.119Z,40.8
2023-05-05T15:04:58.538Z,41.3
2023-05-05T15:06:21.948Z,41.2
2023-05-05T15:07:45.335Z,40.9
2023-05-05T15:09:08.756Z,40.7
2023-05-05T15:10:32.170Z,41.1
2023-05-05T15:11:55.574Z,41.2
2023-05-05T15:13:18.991Z,41.8
2023-05-05T15:14:42.404Z,41.4
2023-05-05T15:16:05.809Z,41.8
2023-05-05T15:17:29.228Z,41.9
2023-05-05T15:18:52.621Z,42.1
2023-05-05T15:20:15.050Z,41.6
2023-05-05T15:21:38.462Z,42.6
2023-05-05T15:23:01.870Z,42
2023-05-05T15:24:25.271Z,42.5
2023-05-05T15:25:48.692Z,42.4
2023-05-05T15:27:12.095Z,42.2
2023-05-05T15:28:35.514Z,42.3
2023-05-05T15:29:58.919Z,42.7
2023-05-05T15:31:22.327Z,43.2
2023-05-05T15:32:45.726Z,42.2
2023-05-05T15:34:09.141Z,42.1
2023-05-05T15:35:32.558Z,42.3
2023-05-05T15:36:55.968Z,42.7
2023-05-05T15:38:18.383Z,43.5
2023-05-05T15:39:41.791Z,43
2023-05-05T15:41:05.217Z,42.9
2023-05-05T15:42:28.620Z,43
2023-05-05T15:43:52.021Z,43.3
2023-05-05T15:45:15.439Z,43.6
2023-05-05T15:46:38.844Z,44
2023-05-05T15:48:02.244Z,44.1
2023-05-05T15:49:25.646Z,44.3
2023-05-05T15:50:49.053Z,43.8
2023-05-05T15:52:12.471Z,43.2
2023-05-05T15:53:35.871Z,43.8
2023-05-05T15:54:59.297Z,43.8
2023-05-05T15:56:21.712Z,43.8
2023-05-05T15:57:45.122Z,43.9
2023-05-05T15:59:08.538Z,43.6
2023-05-05T16:00:31.937Z,44
2023-05-05T16:01:55.353Z,43.9
2023-05-05T16:03:18.767Z,44.1
2023-05-05T16:04:42.165Z,44.5
2023-05-05T16:06:05.590Z,44.8
2023-05-05T16:07:28.994Z,44.8
2023-05-05T16:08:52.407Z,44.9
2023-05-05T16:10:15.796Z,45.2
2023-05-05T16:11:39.221Z,45.5
2023-05-05T16:13:02.613Z,45.5
2023-05-05T16:14:25.051Z,45.9
2023-05-05T16:15:48.443Z,46.5
2023-05-05T16:17:11.851Z,46.4
2023-05-05T16:18:35.273Z,46.3
2023-05-05T16:19:58.680Z,46.6
2023-05-05T16:21:22.083Z,46.5
2023-05-05T16:22:45.490Z,46.5
2023-05-05T16:24:08.902Z,46.5
2023-05-05T16:25:32.300Z,46.5
2023-05-05T16:26:55.712Z,46.9
2023-05-05T16:28:19.125Z,47.6
2023-05-05T16:29:42.538Z,47.5
2023-05-05T16:31:05.954Z,47.4
2023-05-05T16:32:28.363Z,47.1
2023-05-05T16:33:51.780Z,47.4
2023-05-05T16:35:15.186Z,47.7
2023-05-05T16:36:38.584Z,47.6
2023-05-05T16:38:02.001Z,47.2
2023-05-05T16:39:25.397Z,47.1
2023-05-05T16:40:48.820Z,47.2
2023-05-05T16:42:12.232Z,46.9
2023-05-05T16:43:35.644Z,46.7
2023-05-05T16:44:59.049Z,46.5
2023-05-05T16:46:22.460Z,46.9
2023-05-05T16:47:45.852Z,47.2
2023-05-05T16:49:09.260Z,46.3
2023-05-05T16:50:31.704Z,46.9
2023-05-05T16:51:55.111Z,46.2
2023-05-05T16:53:18.512Z,46.4
2023-05-05T16:54:41.930Z,45.4
2023-05-05T16:56:05.346Z,45.5
2023-05-05T16:57:28.737Z,45.3
2023-05-05T16:58:52.161Z,45.1
2023-05-05T17:00:15.568Z,45.3
2023-05-05T17:01:38.992Z,45.5
2023-05-05T17:03:02.387Z,45.6
2023-05-05T17:04:25.800Z,45.2
2023-05-05T17:05:49.213Z,45.2
2023-05-05T17:07:12.615Z,45.2
2023-05-05T17:08:35.048Z,45.6
2023-05-05T17:09:58.454Z,45.7
2023-05-05T17:11:21.857Z,45.6
2023-05-05T17:12:45.261Z,45.6
2023-05-05T17:14:08.689Z,45.5
2023-05-05T17:15:32.086Z,45.8
2023-05-05T17:16:55.516Z,46.3
2023-05-05T17:18:18.922Z,46.1
2023-05-05T17:19:42.311Z,46
2023-05-05T17:21:05.735Z,46.4
2023-05-05T17:22:29.148Z,46.7
2023-05-05T17:23:52.544Z,46.5
2023-05-05T17:25:15.945Z,46.3
2023-05-05T17:26:38.366Z,46.7
2023-05-05T17:28:01.785Z,46.8
2023-05-05T17:29:25.198Z,46.7
2023-05-05T17:30:48.599Z,46.7
2023-05-05T17:32:12.017Z,47
2023-05-05T17:33:35.421Z,47
2023-05-05T17:34:58.833Z,47.4
2023-05-05T17:36:22.231Z,47.3
2023-05-05T17:37:45.646Z,47.7
2023-05-05T17:39:09.050Z,48.3
2023-05-05T17:40:32.459Z,48.5
2023-05-05T17:41:55.868Z,48.8
2023-05-05T17:43:19.279Z,49
2023-05-05T17:44:41.701Z,49.5
2023-05-05T17:46:05.104Z,49.7
2023-05-05T17:47:28.508Z,50.1
2023-05-05T17:48:51.928Z,50.5
2023-05-05T17:50:15.327Z,51
2023-05-05T17:51:38.741Z,51.3
2023-05-05T17:53:02.150Z,51.8
2023-05-05T17:54:25.557Z,52
2023-05-05T17:55:48.965Z,52.4
2023-05-05T17:57:12.374Z,52.4
2023-05-05T17:58:35.785Z,52.7
2023-05-05T17:59:59.198Z,52.9
2023-05-05T18:01:22.618Z,53.1
2023-05-05T18:02:45.031Z,53.4
2023-05-05T18:04:08.431Z,53.8
2023-05-05T18:05:31.844Z,53.8
2023-05-05T18:06:55.261Z,54.2
2023-05-05T18:08:18.668Z,54.3
2023-05-05T18:09:42.072Z,54.6
2023-05-05T18:11:05.491Z,54.8
2023-05-05T18:12:28.889Z,55
2023-05-05T18:13:52.294Z,56.2
2023-05-05T18:15:15.701Z,58.7
2023-05-05T18:16:39.104Z,64.3
2023-05-05T18:18:02.517Z,67.9
2023-05-05T18:19:25.932Z,70.6
2023-05-05T18:20:48.348Z,72.9
2023-05-05T18:22:11.754Z,75.8
2023-05-05T18:23:35.159Z,77.4
2023-05-05T18:24:58.582Z,78.5
2023-05-05T18:26:21.990Z,81.1
2023-05-05T18:27:45.408Z,82.3
2023-05-05T18:29:08.807Z,84.2
2023-05-05T18:30:32.209Z,84.3
2023-05-05T18:31:55.630Z,86.8
2023-05-05T18:33:19.031Z,88.7
2023-05-05T18:34:42.435Z,89.2
2023-05-05T18:36:05.857Z,89.5
2023-05-05T18:37:29.266Z,90.2
2023-05-05T18:38:51.691Z,90.8
2023-05-05T18:40:15.084Z,90.7
2023-05-05T18:41:38.499Z,90.5
2023-05-05T18:43:01.893Z,90.4
2023-05-05T18:44:25.303Z,90.7
2023-05-05T18:45:48.712Z,90.9
2023-05-05T18:47:12.121Z,91.1
2023-05-05T18:48:35.536Z,91.1
2023-05-05T18:49:58.939Z,91.2
2023-05-05T18:51:22.350Z,91.1
2023-05-05T18:52:45.762Z,91.3
2023-05-05T18:54:09.209Z,92.4
2023-05-05T18:55:32.619Z,92.9
2023-05-05T18:56:55.048Z,92.8
2023-05-05T18:58:18.454Z,93
2023-05-05T18:59:41.852Z,92.2
2023-05-05T19:01:05.315Z,93
2023-05-05T19:02:28.755Z,92.9
2023-05-05T19:03:52.211Z,93.1
2023-05-05T19:05:15.650Z,92.8
2023-05-05T19:06:39.098Z,92.9
2023-05-05T19:08:02.570Z,91.7
2023-05-05T19:09:26.009Z,91.9
2023-05-05T19:10:49.459Z,91.6
2023-05-05T19:12:12.908Z,91.9
2023-05-05T19:13:36.361Z,91.5
2023-05-05T19:14:58.819Z,91.9
2023-05-05T19:16:22.283Z,91.4
2023-05-05T19:17:45.744Z,90.8
2023-05-05T19:19:09.192Z,90.6
2023-05-05T19:20:32.644Z,91.2
2023-05-05T19:21:56.083Z,91
2023-05-05T19:23:18.546Z,91
2023-05-05T19:24:42.013Z,90
2023-05-05T19:26:05.447Z,89.5
2023-05-05T19:28:52.501Z,90.3
2023-05-05T19:30:15.952Z,89.8
2023-05-05T19:31:39.398Z,90.3
2023-05-05T19:33:02.841Z,90.5
2023-05-05T19:34:26.299Z,89.9
2023-05-05T19:35:49.758Z,90.4
2023-05-05T19:37:13.209Z,90.9
2023-05-05T19:38:36.658Z,91.2
2023-05-05T19:40:00.096Z,91.4
2023-05-05T19:41:22.568Z,92.2
2023-05-05T19:42:46.013Z,92.1
2023-05-05T19:44:09.475Z,92.5
2023-05-05T19:45:32.929Z,93.1
2023-05-05T19:46:56.387Z,93.4
2023-05-05T19:48:19.826Z,93.7
2023-05-05T19:49:43.277Z,94.5
2023-05-05T19:51:06.721Z,94.8
2023-05-05T19:52:30.167Z,95.6
2023-05-05T19:53:53.633Z,96
2023-05-05T19:55:17.076Z,96.5
2023-05-05T19:56:40.539Z,96.5
2023-05-05T19:58:03.978Z,96.2
2023-05-05T19:59:26.438Z,97
2023-05-05T20:00:49.892Z,96.9
2023-05-05T20:02:13.339Z,96.7
2023-05-05T20:03:36.792Z,97
2023-05-05T20:05:00.258Z,96.7
2023-05-05T20:06:23.709Z,96.8
2023-05-05T20:07:47.159Z,96.7
2023-05-05T20:09:10.617Z,97
2023-05-05T20:10:34.057Z,96.8
2023-05-05T20:11:57.504Z,96.8
2023-05-05T20:13:20.957Z,97.1
2023-05-05T20:14:44.401Z,97.4
2023-05-05T20:16:07.000Z,97.7
2023-05-05T20:31:30.171Z,100
2023-05-05T20:46:53.468Z,100
2023-05-05T21:02:16.769Z,100
2023-05-05T21:17:40.049Z,100
2023-05-05T21:33:03.351Z,100
2023-05-05T21:48:26.657Z,100
2023-05-05T22:03:49.956Z,100
2023-05-05T22:19:13.248Z,100
2023-05-05T22:34:36.546Z,100
2023-05-05T22:49:59.846Z,100
2023-05-05T23:05:23.140Z,100
2023-05-05T23:20:46.422Z,100
2023-05-05T23:36:09.000Z,100
2023-05-05T23:51:32.031Z,100
